createdAt,value
2018-10-03T00:01:27.951Z,12.46
2018-10-03T00:03:55.891Z,12.53
2018-10-03T00:06:23.810Z,12.65
2018-10-03T00:08:51.831Z,12.51
2018-10-03T00:11:19.903Z,12.56
2018-10-03T00:13:47.748Z,12.48
2018-10-03T00:16:15.848Z,12.52
2018-10-03T00:18:43.832Z,12.60
2018-10-03T00:21:11.888Z,12.51
2018-10-03T00:23:39.757Z,12.53
2018-10-03T00:26:07.679Z,12.61
2018-10-03T00:28:35.607Z,12.76
2018-10-03T00:31:03.437Z,12.65
2018-10-03T00:33:31.268Z,12.53
2018-10-03T00:35:59.099Z,12.56
2018-10-03T00:38:26.951Z,12.59
2018-10-03T00:40:54.785Z,12.69
2018-10-03T00:43:22.652Z,12.70
2018-10-03T00:45:50.544Z,12.56
2018-10-03T00:48:18.621Z,12.60
2018-10-03T00:50:46.429Z,12.70
2018-10-03T00:53:14.276Z,12.61
2018-10-03T00:55:42.240Z,12.67
2018-10-03T00:58:10.127Z,12.57
2018-10-03T01:00:38.004Z,12.54
2018-10-03T01:03:06.332Z,12.64
2018-10-03T01:05:34.205Z,12.51
2018-10-03T01:08:03.322Z,12.58
2018-10-03T01:10:31.059Z,12.67
2018-10-03T01:12:58.818Z,12.53
2018-10-03T01:15:26.731Z,12.63
2018-10-03T01:17:54.525Z,12.65
2018-10-03T01:20:22.358Z,12.75
2018-10-03T01:22:50.126Z,12.64
2018-10-03T01:25:17.955Z,12.64
2018-10-03T01:27:45.759Z,12.65
2018-10-03T01:30:13.555Z,12.69
2018-10-03T01:32:41.358Z,12.73
2018-10-03T01:35:09.195Z,12.56
2018-10-03T01:37:36.976Z,12.64
2018-10-03T01:40:04.834Z,12.71
2018-10-03T01:42:32.595Z,12.69
2018-10-03T01:45:00.408Z,12.68
2018-10-03T01:47:28.179Z,12.79
2018-10-03T01:49:56.163Z,12.71
2018-10-03T01:52:23.949Z,12.77
2018-10-03T01:54:51.799Z,12.71
2018-10-03T01:57:19.588Z,12.66
2018-10-03T01:59:47.347Z,12.82
2018-10-03T02:02:15.110Z,12.76
2018-10-03T02:04:42.863Z,12.87
2018-10-03T02:07:10.632Z,12.81
2018-10-03T02:09:38.373Z,12.75
2018-10-03T02:12:06.175Z,12.70
2018-10-03T02:14:33.952Z,12.67
2018-10-03T02:17:02.135Z,12.65
2018-10-03T02:19:29.848Z,12.81
2018-10-03T02:22:03.271Z,12.79
2018-10-03T02:24:31.016Z,12.79
2018-10-03T02:26:58.761Z,12.69
2018-10-03T02:29:26.745Z,12.84
2018-10-03T02:31:54.503Z,12.78
2018-10-03T02:34:22.722Z,12.76
2018-10-03T02:36:50.615Z,12.75
2018-10-03T02:39:18.390Z,12.94
2018-10-03T02:41:46.243Z,12.74
2018-10-03T02:44:14.366Z,12.74
2018-10-03T02:46:43.801Z,12.70
2018-10-03T02:49:11.629Z,12.73
2018-10-03T02:51:39.368Z,12.75
2018-10-03T02:54:07.258Z,12.84
2018-10-03T02:56:35.001Z,12.90
2018-10-03T02:59:03.031Z,12.71
2018-10-03T03:01:30.917Z,12.65
2018-10-03T03:13:20.111Z,12.69
2018-10-03T03:15:47.911Z,12.73
2018-10-03T03:18:15.764Z,12.68
2018-10-03T03:20:43.602Z,12.69
2018-10-03T03:23:11.414Z,12.61
2018-10-03T03:25:39.162Z,12.65
2018-10-03T03:28:06.922Z,12.65
2018-10-03T03:30:34.699Z,12.73
2018-10-03T03:33:02.607Z,12.70
2018-10-03T03:35:30.358Z,12.73
2018-10-03T03:37:58.128Z,12.77
2018-10-03T03:40:25.895Z,12.84
2018-10-03T03:42:53.654Z,12.86
2018-10-03T03:45:21.417Z,12.80
2018-10-03T03:47:49.362Z,12.78
2018-10-03T03:50:17.136Z,12.74
2018-10-03T03:52:44.896Z,12.97
2018-10-03T03:55:12.700Z,12.97
2018-10-03T03:57:40.801Z,12.86
2018-10-03T04:00:08.667Z,12.81
2018-10-03T04:02:36.479Z,12.82
2018-10-03T04:05:04.495Z,12.80
2018-10-03T04:07:32.297Z,12.89
2018-10-03T04:10:00.056Z,12.84
2018-10-03T04:12:28.075Z,12.75
2018-10-03T04:14:55.879Z,12.74
2018-10-03T04:17:27.457Z,12.72
2018-10-03T04:19:55.299Z,12.93
2018-10-03T04:22:23.040Z,12.80
2018-10-03T04:24:51.035Z,12.83
2018-10-03T04:27:18.788Z,12.69
2018-10-03T04:29:46.562Z,12.77
2018-10-03T04:32:14.322Z,12.79
2018-10-03T04:34:42.144Z,12.72
2018-10-03T04:37:09.910Z,12.76
2018-10-03T04:39:37.705Z,12.73
2018-10-03T04:42:05.795Z,12.65
2018-10-03T04:44:33.557Z,12.77
2018-10-03T04:47:01.367Z,12.65
2018-10-03T04:49:29.141Z,12.79
2018-10-03T04:51:56.903Z,12.82
2018-10-03T04:54:24.651Z,12.76
2018-10-03T04:56:52.394Z,12.71
2018-10-03T04:59:20.134Z,12.83
2018-10-03T05:01:52.366Z,12.83
2018-10-03T05:04:20.144Z,12.74
2018-10-03T05:06:47.981Z,12.74
2018-10-03T05:09:16.839Z,12.78
2018-10-03T05:11:44.623Z,12.93
2018-10-03T05:14:12.432Z,12.88
2018-10-03T05:16:40.298Z,12.93
2018-10-03T05:19:11.748Z,13.00
2018-10-03T05:21:39.506Z,12.99
2018-10-03T05:24:07.493Z,12.94
2018-10-03T05:26:35.304Z,12.81
2018-10-03T05:29:03.143Z,12.87
2018-10-03T05:31:30.962Z,12.88
2018-10-03T05:33:59.098Z,12.89
2018-10-03T05:36:26.866Z,12.98
2018-10-03T05:38:55.010Z,13.06
2018-10-03T05:41:22.879Z,13.09
2018-10-03T05:43:50.618Z,12.81
2018-10-03T05:46:18.403Z,12.83
2018-10-03T05:48:46.303Z,12.95
2018-10-03T05:51:14.131Z,12.99
2018-10-03T05:53:41.939Z,12.96
2018-10-03T05:56:09.974Z,13.00
2018-10-03T05:58:38.041Z,12.96
2018-10-03T06:01:05.975Z,12.85
2018-10-03T06:03:33.711Z,12.84
2018-10-03T06:06:01.653Z,12.98
2018-10-03T06:08:29.397Z,12.86
2018-10-03T06:10:57.192Z,12.83
2018-10-03T06:13:25.023Z,12.81
2018-10-03T06:15:53.114Z,12.77
2018-10-03T06:18:20.855Z,12.83
2018-10-03T06:20:48.623Z,12.88
2018-10-03T06:23:16.432Z,12.83
2018-10-03T06:25:44.268Z,12.81
2018-10-03T06:28:15.924Z,12.75
2018-10-03T06:30:43.670Z,12.76
2018-10-03T06:33:11.766Z,12.91
2018-10-03T06:35:39.513Z,12.87
2018-10-03T06:38:07.396Z,12.81
2018-10-03T06:40:35.146Z,12.72
2018-10-03T06:43:03.423Z,12.87
2018-10-03T06:45:31.204Z,12.85
2018-10-03T06:47:58.990Z,12.81
2018-10-03T06:50:27.023Z,12.80
2018-10-03T06:52:54.783Z,12.81
2018-10-03T06:55:22.575Z,12.75
2018-10-03T06:57:50.311Z,12.85
2018-10-03T07:00:18.195Z,12.84
2018-10-03T07:02:46.076Z,12.56
2018-10-03T07:05:13.824Z,12.41
2018-10-03T07:07:41.579Z,12.48
2018-10-03T07:10:09.428Z,12.58
2018-10-03T07:12:37.402Z,12.59
2018-10-03T07:15:05.332Z,12.44
2018-10-03T07:17:33.213Z,12.45
2018-10-03T07:20:01.513Z,12.48
2018-10-03T07:22:29.340Z,12.57
2018-10-03T07:24:57.290Z,12.50
2018-10-03T07:27:25.219Z,12.55
2018-10-03T07:29:52.984Z,12.54
2018-10-03T07:32:20.814Z,12.64
2018-10-03T07:34:48.796Z,12.65
2018-10-03T07:37:16.629Z,12.69
2018-10-03T07:39:44.655Z,12.81
2018-10-03T07:42:12.437Z,12.83
2018-10-03T07:44:40.240Z,12.83
2018-10-03T07:47:08.110Z,12.92
2018-10-03T07:49:35.968Z,12.90
2018-10-03T07:52:03.864Z,12.81
2018-10-03T07:54:31.663Z,12.97
2018-10-03T07:56:59.465Z,12.93
2018-10-03T07:59:27.537Z,13.02
2018-10-03T08:01:55.316Z,12.93
2018-10-03T08:04:23.106Z,13.09
2018-10-03T08:06:51.177Z,13.21
2018-10-03T08:09:18.968Z,13.11
2018-10-03T08:11:46.850Z,13.25
2018-10-03T08:14:14.639Z,13.41
2018-10-03T08:16:42.444Z,13.43
2018-10-03T08:19:10.343Z,13.45
2018-10-03T08:21:38.118Z,13.35
2018-10-03T08:24:06.037Z,13.31
2018-10-03T08:26:33.796Z,13.28
2018-10-03T08:29:01.723Z,13.32
2018-10-03T08:31:30.232Z,13.46
2018-10-03T08:33:58.077Z,13.32
2018-10-03T08:36:26.072Z,13.32
2018-10-03T08:38:53.986Z,13.47
2018-10-03T08:41:21.820Z,13.45
2018-10-03T08:43:56.855Z,13.69
2018-10-03T08:46:24.737Z,13.61
2018-10-03T08:48:52.646Z,13.63
2018-10-03T08:51:20.467Z,13.85
2018-10-03T08:53:48.288Z,14.04
2018-10-03T08:56:16.126Z,14.14
2018-10-03T08:58:44.093Z,14.22
2018-10-03T09:01:11.967Z,14.41
2018-10-03T09:03:39.841Z,14.79
2018-10-03T09:06:07.636Z,14.82
2018-10-03T09:08:35.522Z,15.05
2018-10-03T09:11:03.657Z,15.01
2018-10-03T09:13:31.775Z,14.60
2018-10-03T09:15:59.591Z,14.93
2018-10-03T09:18:27.398Z,14.70
2018-10-03T09:20:55.199Z,14.75
2018-10-03T09:23:22.986Z,14.90
2018-10-03T09:25:50.780Z,14.91
2018-10-03T09:28:18.618Z,15.03
2018-10-03T09:30:46.492Z,14.95
2018-10-03T09:33:14.351Z,15.01
2018-10-03T09:35:42.248Z,15.03
2018-10-03T09:38:10.071Z,15.06
2018-10-03T09:40:37.995Z,14.98
2018-10-03T09:43:06.219Z,14.83
2018-10-03T09:45:33.987Z,15.09
2018-10-03T09:48:01.818Z,15.08
2018-10-03T09:50:29.615Z,15.35
2018-10-03T09:52:57.392Z,15.14
2018-10-03T09:55:25.463Z,15.45
2018-10-03T09:57:53.257Z,15.69
2018-10-03T10:00:26.957Z,15.86
2018-10-03T10:02:54.807Z,16.00
2018-10-03T10:05:23.230Z,15.92
2018-10-03T10:07:51.218Z,16.25
2018-10-03T10:10:19.383Z,15.99
2018-10-03T10:12:47.593Z,15.79
2018-10-03T10:15:15.380Z,15.49
2018-10-03T10:17:43.336Z,15.47
2018-10-03T10:20:11.342Z,15.94
2018-10-03T10:22:39.131Z,15.89
2018-10-03T10:25:07.079Z,15.79
2018-10-03T10:27:35.028Z,16.09
2018-10-03T10:30:03.696Z,16.37
2018-10-03T10:32:31.839Z,16.49
2018-10-03T10:34:59.914Z,16.71
2018-10-03T10:37:27.892Z,16.90
2018-10-03T10:39:55.819Z,17.16
2018-10-03T10:42:23.862Z,17.03
2018-10-03T10:44:51.768Z,17.37
2018-10-03T10:47:19.567Z,17.41
2018-10-03T10:49:47.424Z,17.79
2018-10-03T10:52:15.427Z,18.46
2018-10-03T10:54:43.217Z,18.79
2018-10-03T10:57:11.096Z,19.25
2018-10-03T10:59:39.449Z,20.04
2018-10-03T11:02:07.415Z,20.02
2018-10-03T11:04:35.222Z,18.57
2018-10-03T11:07:03.061Z,19.58
2018-10-03T11:09:31.336Z,19.54
2018-10-03T11:11:59.660Z,19.74
2018-10-03T11:14:27.527Z,19.85
2018-10-03T11:16:55.875Z,20.07
2018-10-03T11:19:23.644Z,20.55
2018-10-03T11:21:51.463Z,20.88
2018-10-03T11:24:19.452Z,20.94
2018-10-03T11:26:47.471Z,20.28
2018-10-03T11:29:15.363Z,20.10
2018-10-03T11:31:43.159Z,20.62
2018-10-03T11:34:11.010Z,20.47
2018-10-03T11:36:38.822Z,20.28
2018-10-03T11:39:08.659Z,20.48
2018-10-03T11:41:37.285Z,21.24
2018-10-03T11:44:05.237Z,21.58
2018-10-03T11:46:33.009Z,21.55
2018-10-03T11:49:00.847Z,21.82
2018-10-03T11:51:28.746Z,22.29
2018-10-03T11:53:56.609Z,22.14
2018-10-03T11:56:24.445Z,21.08
2018-10-03T11:58:53.678Z,21.35
2018-10-03T12:01:21.466Z,21.59
2018-10-03T12:03:49.267Z,22.00
2018-10-03T12:08:44.707Z,22.30
2018-10-03T12:11:12.482Z,22.27
2018-10-03T12:13:40.367Z,22.03
2018-10-03T12:16:08.283Z,21.96
2018-10-03T12:18:36.087Z,21.13
2018-10-03T12:21:04.212Z,21.49
2018-10-03T12:23:32.007Z,21.25
2018-10-03T12:25:59.883Z,21.25
2018-10-03T12:28:27.799Z,21.61
2018-10-03T12:30:58.950Z,22.36
2018-10-03T12:33:27.113Z,22.54
2018-10-03T12:35:54.832Z,22.32
2018-10-03T12:38:22.670Z,21.88
2018-10-03T12:40:50.491Z,21.11
2018-10-03T12:43:18.282Z,21.42
2018-10-03T12:45:46.086Z,21.80
2018-10-03T12:48:13.851Z,21.88
2018-10-03T12:50:41.609Z,22.01
2018-10-03T12:53:09.415Z,21.82
2018-10-03T12:55:37.199Z,21.84
2018-10-03T12:58:05.085Z,21.82
2018-10-03T13:00:33.243Z,21.80
2018-10-03T13:03:02.342Z,21.48
2018-10-03T13:05:30.180Z,21.20
2018-10-03T13:07:58.472Z,20.90
2018-10-03T13:13:35.900Z,21.02
2018-10-03T13:16:03.764Z,20.99
2018-10-03T13:18:31.582Z,20.93
2018-10-03T13:20:59.390Z,20.72
2018-10-03T13:23:27.474Z,20.72
2018-10-03T13:25:55.231Z,20.68
2018-10-03T13:28:23.276Z,20.36
2018-10-03T13:30:51.086Z,20.11
2018-10-03T13:33:18.871Z,19.89
2018-10-03T13:35:47.652Z,20.16
2018-10-03T13:38:15.508Z,20.26
2018-10-03T13:40:43.308Z,20.28
2018-10-03T13:43:11.079Z,20.28
2018-10-03T13:45:38.932Z,20.25
2018-10-03T13:48:06.987Z,20.05
2018-10-03T13:50:34.902Z,19.91
2018-10-03T13:53:02.998Z,19.67
2018-10-03T13:55:30.815Z,19.90
2018-10-03T13:57:58.871Z,19.88
2018-10-03T14:00:26.762Z,20.05
2018-10-03T14:02:54.568Z,20.14
2018-10-03T14:05:22.356Z,19.99
2018-10-03T14:07:50.375Z,20.07
2018-10-03T14:10:18.145Z,19.82
2018-10-03T14:12:46.022Z,19.83
2018-10-03T14:15:13.843Z,19.34
2018-10-03T14:17:42.001Z,19.59
2018-10-03T14:20:10.031Z,19.88
2018-10-03T14:22:37.816Z,20.01
2018-10-03T14:25:05.696Z,20.06
2018-10-03T14:27:33.612Z,19.90
2018-10-03T14:30:01.709Z,19.98
2018-10-03T14:32:29.500Z,19.69
2018-10-03T14:34:57.336Z,19.57
2018-10-03T14:37:31.038Z,19.80
2018-10-03T14:39:58.886Z,19.63
2018-10-03T14:42:26.762Z,19.79
2018-10-03T14:44:54.541Z,19.88
2018-10-03T14:47:22.372Z,20.06
2018-10-03T14:49:50.133Z,19.69
2018-10-03T14:52:18.086Z,19.68
2018-10-03T14:54:45.932Z,19.89
2018-10-03T14:57:13.695Z,19.81
2018-10-03T14:59:41.557Z,19.85
2018-10-03T15:02:09.349Z,19.81
2018-10-03T15:04:37.184Z,19.42
2018-10-03T15:07:05.231Z,19.42
2018-10-03T15:09:32.999Z,19.18
2018-10-03T15:12:01.865Z,19.19
2018-10-03T15:14:29.765Z,19.08
2018-10-03T15:16:57.496Z,19.14
2018-10-03T15:19:25.242Z,19.00
2018-10-03T15:21:53.043Z,18.70
2018-10-03T15:24:20.836Z,18.33
2018-10-03T15:26:48.710Z,18.27
2018-10-03T15:29:16.537Z,18.15
2018-10-03T15:31:44.726Z,18.21
2018-10-03T15:34:12.647Z,17.93
2018-10-03T15:36:40.508Z,17.91
2018-10-03T15:39:08.916Z,18.03
2018-10-03T15:41:36.980Z,17.91
2018-10-03T15:44:04.864Z,17.79
2018-10-03T15:46:32.927Z,17.85
2018-10-03T15:49:00.768Z,17.81
2018-10-03T15:51:28.560Z,17.73
2018-10-03T15:53:56.452Z,17.76
2018-10-03T15:56:24.198Z,17.85
2018-10-03T15:58:52.108Z,18.10
2018-10-03T16:01:19.987Z,17.79
2018-10-03T16:03:47.784Z,17.97
2018-10-03T16:06:15.625Z,18.15
2018-10-03T16:08:43.473Z,17.85
2018-10-03T16:11:11.249Z,17.78
2018-10-03T16:13:39.060Z,17.74
2018-10-03T16:16:06.843Z,17.74
2018-10-03T16:18:35.851Z,17.71
2018-10-03T16:21:03.647Z,17.76
2018-10-03T16:23:31.448Z,17.66
2018-10-03T16:25:59.359Z,17.57
2018-10-03T16:28:27.170Z,17.59
2018-10-03T16:30:55.003Z,17.53
2018-10-03T16:33:22.799Z,17.55
2018-10-03T16:35:50.575Z,17.57
2018-10-03T16:38:22.195Z,17.66
2018-10-03T16:40:49.985Z,17.65
2018-10-03T16:43:17.863Z,17.65
2018-10-03T16:45:45.760Z,17.58
2018-10-03T16:48:13.714Z,17.69
2018-10-03T16:50:41.604Z,17.36
2018-10-03T16:53:09.415Z,17.28
2018-10-03T16:55:37.371Z,17.12
2018-10-03T16:58:05.213Z,17.11
2018-10-03T17:00:33.007Z,17.26
2018-10-03T17:03:00.844Z,17.09
2018-10-03T17:05:28.596Z,17.06
2018-10-03T17:07:56.543Z,17.08
2018-10-03T17:10:24.323Z,17.08
2018-10-03T17:12:52.067Z,17.09
2018-10-03T17:15:20.282Z,17.01
2018-10-03T17:17:48.071Z,16.98
2018-10-03T17:20:16.025Z,16.96
2018-10-03T17:22:43.874Z,16.92
2018-10-03T17:25:11.913Z,16.83
2018-10-03T17:27:39.794Z,16.86
2018-10-03T17:30:07.591Z,16.79
2018-10-03T17:32:35.351Z,16.71
2018-10-03T17:35:03.154Z,16.58
2018-10-03T17:37:31.123Z,16.64
2018-10-03T17:39:59.059Z,16.56
2018-10-03T17:42:26.845Z,16.40
2018-10-03T17:44:54.770Z,16.48
2018-10-03T17:47:22.786Z,16.38
2018-10-03T17:49:50.549Z,16.41
2018-10-03T17:52:18.448Z,16.52
2018-10-03T17:54:46.379Z,16.37
2018-10-03T17:57:14.303Z,16.37
2018-10-03T17:59:42.076Z,16.48
2018-10-03T18:02:11.271Z,16.32
2018-10-03T18:04:44.650Z,16.25
2018-10-03T18:07:12.491Z,16.07
2018-10-03T18:09:40.371Z,16.03
2018-10-03T18:12:08.419Z,15.97
2018-10-03T18:14:36.391Z,15.92
2018-10-03T18:17:04.592Z,15.91
2018-10-03T18:19:32.364Z,15.81
2018-10-03T18:22:00.136Z,15.73
2018-10-03T18:24:28.612Z,15.76
2018-10-03T18:26:56.522Z,15.66
2018-10-03T18:29:24.323Z,15.74
2018-10-03T18:31:52.278Z,15.59
2018-10-03T18:34:20.311Z,15.56
2018-10-03T18:36:48.195Z,15.51
2018-10-03T18:39:16.215Z,15.45
2018-10-03T18:41:43.942Z,15.44
2018-10-03T18:44:11.814Z,15.44
2018-10-03T18:46:39.639Z,15.40
2018-10-03T18:49:07.455Z,15.36
2018-10-03T18:51:35.292Z,15.35
2018-10-03T18:54:03.182Z,15.39
2018-10-03T18:56:30.971Z,15.32
2018-10-03T18:58:58.879Z,15.24
2018-10-03T19:01:27.043Z,15.22
2018-10-03T19:03:54.996Z,15.20
2018-10-03T19:06:22.882Z,15.09
2018-10-03T19:08:50.945Z,15.06
2018-10-03T19:11:18.771Z,15.08
2018-10-03T19:13:46.547Z,14.99
2018-10-03T19:16:14.375Z,15.01
2018-10-03T19:18:43.014Z,15.03
2018-10-03T19:21:11.016Z,15.05
2018-10-03T19:23:39.039Z,15.08
2018-10-03T19:26:06.929Z,15.02
2018-10-03T19:28:34.794Z,15.03
2018-10-03T19:31:02.581Z,15.05
2018-10-03T19:33:30.673Z,15.12
2018-10-03T19:35:58.767Z,15.03
2018-10-03T19:38:26.660Z,15.11
2018-10-03T19:40:54.431Z,15.02
2018-10-03T19:43:22.229Z,15.13
2018-10-03T19:45:50.461Z,14.97
2018-10-03T19:48:18.251Z,14.85
2018-10-03T19:50:46.032Z,14.83
2018-10-03T19:53:20.709Z,14.79
2018-10-03T19:55:52.260Z,14.65
2018-10-03T19:58:20.111Z,14.74
2018-10-03T20:00:48.066Z,14.71
2018-10-03T20:03:15.887Z,14.61
2018-10-03T20:05:43.659Z,14.66
2018-10-03T20:08:11.482Z,14.53
2018-10-03T20:10:39.261Z,14.46
2018-10-03T20:13:07.063Z,14.48
2018-10-03T20:15:34.866Z,14.40
2018-10-03T20:18:02.639Z,14.35
2018-10-03T20:20:30.439Z,14.40
2018-10-03T20:22:58.203Z,14.31
2018-10-03T20:25:26.086Z,14.35
2018-10-03T20:27:53.913Z,14.34
2018-10-03T20:30:21.701Z,14.33
2018-10-03T20:32:49.482Z,14.36
2018-10-03T20:35:17.298Z,14.36
2018-10-03T20:37:45.095Z,14.35
2018-10-03T20:40:12.917Z,14.35
2018-10-03T20:42:40.699Z,14.43
2018-10-03T20:45:08.497Z,14.44
2018-10-03T20:47:36.288Z,14.32
2018-10-03T20:50:04.135Z,14.17
2018-10-03T20:52:31.941Z,14.11
2018-10-03T20:54:59.895Z,14.13
2018-10-03T20:57:27.679Z,14.04
2018-10-03T20:59:55.516Z,14.18
2018-10-03T21:02:23.271Z,14.26
2018-10-03T21:04:51.033Z,14.24
2018-10-03T21:07:19.148Z,14.15
2018-10-03T21:09:46.919Z,14.05
2018-10-03T21:12:14.736Z,13.98
2018-10-03T21:14:42.502Z,13.99
2018-10-03T21:17:10.323Z,14.06
2018-10-03T21:19:38.103Z,14.06
2018-10-03T21:22:05.923Z,14.05
2018-10-03T21:24:33.727Z,14.02
2018-10-03T21:27:02.220Z,13.87
2018-10-03T21:29:30.014Z,13.92
2018-10-03T21:31:57.856Z,13.98
2018-10-03T21:34:25.638Z,13.93
2018-10-03T21:36:53.494Z,13.88
2018-10-03T21:39:21.295Z,13.80
2018-10-03T21:41:49.385Z,13.84
2018-10-03T21:44:17.163Z,13.85
2018-10-03T21:46:44.988Z,13.74
2018-10-03T21:49:12.842Z,13.72
2018-10-03T21:51:41.857Z,13.62
2018-10-03T21:54:09.712Z,13.71
2018-10-03T21:56:37.498Z,13.68
2018-10-03T21:59:05.435Z,13.57
2018-10-03T22:01:33.229Z,13.60
2018-10-03T22:04:01.208Z,13.45
2018-10-03T22:06:29.426Z,13.48
2018-10-03T22:08:57.237Z,13.51
2018-10-03T22:11:25.036Z,13.46
2018-10-03T22:13:52.992Z,13.37
2018-10-03T22:16:20.758Z,13.40
2018-10-03T22:18:48.572Z,13.31
2018-10-03T22:21:16.369Z,13.32
2018-10-03T22:23:44.168Z,13.36
2018-10-03T22:26:11.935Z,13.32
2018-10-03T22:28:39.716Z,13.30
2018-10-03T22:31:07.831Z,13.26
2018-10-03T22:33:35.690Z,13.26
2018-10-03T22:36:04.096Z,13.23
2018-10-03T22:38:31.893Z,13.04
2018-10-03T22:40:59.688Z,13.03
2018-10-03T22:43:27.451Z,12.96
2018-10-03T22:45:59.244Z,12.77
2018-10-03T22:48:27.058Z,12.81
2018-10-03T22:50:54.840Z,12.70
2018-10-03T22:53:22.649Z,12.72
2018-10-03T22:55:50.783Z,12.76
2018-10-03T22:58:18.571Z,12.76
2018-10-03T23:00:46.345Z,12.87
2018-10-03T23:03:14.146Z,12.79
2018-10-03T23:05:41.956Z,12.84
2018-10-03T23:08:09.763Z,12.76
2018-10-03T23:10:37.559Z,12.72
2018-10-03T23:13:05.383Z,12.73
2018-10-03T23:15:33.206Z,12.72
2018-10-03T23:18:01.195Z,12.69
2018-10-03T23:20:29.002Z,12.60
2018-10-03T23:22:56.778Z,12.57
2018-10-03T23:25:24.656Z,12.58
2018-10-03T23:27:52.472Z,12.59
2018-10-03T23:30:20.595Z,12.58
2018-10-03T23:32:48.896Z,12.53
2018-10-03T23:35:16.705Z,12.49
2018-10-03T23:37:44.843Z,12.45
2018-10-03T23:40:12.623Z,12.41
2018-10-03T23:42:40.777Z,12.39
2018-10-03T23:45:08.585Z,12.28
2018-10-03T23:47:40.350Z,12.18
2018-10-03T23:50:08.147Z,11.96
2018-10-03T23:52:35.931Z,11.82
2018-10-03T23:55:03.751Z,11.80
2018-10-03T23:57:31.575Z,11.81
2018-10-03T23:59:59.363Z,11.80
